sensor_id;sensor_type;location;lat;lon;timestamp;P1;durP1;ratioP1;P2;durP2;ratioP2
14876;SDS011;69691;48.172;17.070;2023-07-24T00:00:38;14.15;;;9.52;;
14876;SDS011;69691;48.172;17.070;2023-07-24T00:03:05;13.05;;;9.70;;
14876;SDS011;69691;48.172;17.070;2023-07-24T00:05:31;12.23;;;10.55;;
14876;SDS011;69691;48.172;17.070;2023-07-24T00:07:57;20.80;;;9.70;;
14876;SDS011;69691;48.172;17.070;2023-07-24T00:10:23;15.85;;;10.45;;
14876;SDS011;69691;48.172;17.070;2023-07-24T00:12:49;12.00;;;10.18;;
14876;SDS011;69691;48.172;17.070;2023-07-24T00:15:15;14.35;;;9.60;;
14876;SDS011;69691;48.172;17.070;2023-07-24T00:17:41;23.50;;;11.07;;
14876;SDS011;69691;48.172;17.070;2023-07-24T00:20:07;13.77;;;10.38;;
14876;SDS011;69691;48.172;17.070;2023-07-24T00:22:33;18.98;;;10.65;;
14876;SDS011;69691;48.172;17.070;2023-07-24T00:24:59;16.75;;;10.90;;
14876;SDS011;69691;48.172;17.070;2023-07-24T00:27:25;15.73;;;10.85;;
14876;SDS011;69691;48.172;17.070;2023-07-24T00:29:50;12.25;;;10.30;;
14876;SDS011;69691;48.172;17.070;2023-07-24T00:32:16;17.92;;;10.73;;
14876;SDS011;69691;48.172;17.070;2023-07-24T00:34:42;12.05;;;10.63;;
14876;SDS011;69691;48.172;17.070;2023-07-24T00:37:08;17.10;;;10.65;;
14876;SDS011;69691;48.172;17.070;2023-07-24T00:39:36;12.43;;;10.10;;
14876;SDS011;69691;48.172;17.070;2023-07-24T00:42:02;17.55;;;11.57;;
14876;SDS011;69691;48.172;17.070;2023-07-24T00:44:28;13.18;;;10.40;;
14876;SDS011;69691;48.172;17.070;2023-07-24T00:46:54;14.32;;;11.13;;
14876;SDS011;69691;48.172;17.070;2023-07-24T00:49:20;13.65;;;10.82;;
14876;SDS011;69691;48.172;17.070;2023-07-24T00:51:46;13.43;;;11.15;;
14876;SDS011;69691;48.172;17.070;2023-07-24T00:54:13;16.10;;;10.93;;
14876;SDS011;69691;48.172;17.070;2023-07-24T00:56:43;14.82;;;10.77;;
14876;SDS011;69691;48.172;17.070;2023-07-24T00:59:10;13.57;;;10.52;;
14876;SDS011;69691;48.172;17.070;2023-07-24T01:01:37;19.35;;;11.13;;
14876;SDS011;69691;48.172;17.070;2023-07-24T01:04:05;12.10;;;10.18;;
14876;SDS011;69691;48.172;17.070;2023-07-24T01:06:32;15.93;;;11.02;;
14876;SDS011;69691;48.172;17.070;2023-07-24T01:08:58;17.10;;;11.13;;
14876;SDS011;69691;48.172;17.070;2023-07-24T01:11:33;13.15;;;10.52;;
14876;SDS011;69691;48.172;17.070;2023-07-24T01:14:09;15.20;;;11.40;;
14876;SDS011;69691;48.172;17.070;2023-07-24T01:16:45;18.85;;;11.40;;
14876;SDS011;69691;48.172;17.070;2023-07-24T01:19:16;16.48;;;11.20;;
14876;SDS011;69691;48.172;17.070;2023-07-24T01:21:58;14.63;;;10.43;;
14876;SDS011;69691;48.172;17.070;2023-07-24T01:27:44;14.23;;;11.18;;
14876;SDS011;69691;48.172;17.070;2023-07-24T01:30:12;13.35;;;11.27;;
14876;SDS011;69691;48.172;17.070;2023-07-24T01:32:41;14.32;;;10.55;;
14876;SDS011;69691;48.172;17.070;2023-07-24T01:35:07;13.02;;;11.60;;
14876;SDS011;69691;48.172;17.070;2023-07-24T01:37:35;11.68;;;10.48;;
14876;SDS011;69691;48.172;17.070;2023-07-24T01:40:05;16.27;;;11.23;;
14876;SDS011;69691;48.172;17.070;2023-07-24T01:42:35;13.43;;;12.02;;
14876;SDS011;69691;48.172;17.070;2023-07-24T01:45:02;20.45;;;12.00;;
14876;SDS011;69691;48.172;17.070;2023-07-24T01:47:29;14.80;;;12.07;;
14876;SDS011;69691;48.172;17.070;2023-07-24T01:49:56;16.58;;;11.85;;
14876;SDS011;69691;48.172;17.070;2023-07-24T01:52:21;17.10;;;11.65;;
14876;SDS011;69691;48.172;17.070;2023-07-24T01:54:47;15.50;;;12.13;;
14876;SDS011;69691;48.172;17.070;2023-07-24T01:57:13;15.40;;;11.80;;
14876;SDS011;69691;48.172;17.070;2023-07-24T01:59:42;14.65;;;10.98;;
14876;SDS011;69691;48.172;17.070;2023-07-24T02:02:10;16.02;;;12.10;;
14876;SDS011;69691;48.172;17.070;2023-07-24T02:04:36;14.57;;;11.98;;
14876;SDS011;69691;48.172;17.070;2023-07-24T02:07:02;16.40;;;11.30;;
14876;SDS011;69691;48.172;17.070;2023-07-24T02:09:29;15.70;;;10.98;;
14876;SDS011;69691;48.172;17.070;2023-07-24T02:11:55;16.70;;;10.23;;
14876;SDS011;69691;48.172;17.070;2023-07-24T02:14:20;15.40;;;11.45;;
14876;SDS011;69691;48.172;17.070;2023-07-24T02:16:46;17.77;;;12.63;;
14876;SDS011;69691;48.172;17.070;2023-07-24T02:19:12;17.38;;;12.55;;
14876;SDS011;69691;48.172;17.070;2023-07-24T02:21:38;18.15;;;12.48;;
14876;SDS011;69691;48.172;17.070;2023-07-24T02:24:05;17.83;;;11.65;;
14876;SDS011;69691;48.172;17.070;2023-07-24T02:26:31;12.68;;;11.10;;
14876;SDS011;69691;48.172;17.070;2023-07-24T02:28:57;16.42;;;12.05;;
14876;SDS011;69691;48.172;17.070;2023-07-24T02:31:23;14.77;;;11.82;;
14876;SDS011;69691;48.172;17.070;2023-07-24T02:33:49;13.10;;;10.73;;
14876;SDS011;69691;48.172;17.070;2023-07-24T02:36:15;17.17;;;12.20;;
14876;SDS011;69691;48.172;17.070;2023-07-24T02:38:40;13.30;;;10.77;;
14876;SDS011;69691;48.172;17.070;2023-07-24T02:41:06;15.52;;;11.88;;
14876;SDS011;69691;48.172;17.070;2023-07-24T02:43:34;17.17;;;12.32;;
14876;SDS011;69691;48.172;17.070;2023-07-24T02:46:03;14.55;;;12.02;;
14876;SDS011;69691;48.172;17.070;2023-07-24T02:48:29;15.98;;;12.00;;
14876;SDS011;69691;48.172;17.070;2023-07-24T02:50:55;15.82;;;11.43;;
14876;SDS011;69691;48.172;17.070;2023-07-24T02:53:21;12.50;;;10.98;;
14876;SDS011;69691;48.172;17.070;2023-07-24T02:55:47;14.82;;;11.70;;
14876;SDS011;69691;48.172;17.070;2023-07-24T02:58:13;13.35;;;11.30;;
14876;SDS011;69691;48.172;17.070;2023-07-24T03:00:39;16.40;;;12.23;;
14876;SDS011;69691;48.172;17.070;2023-07-24T03:03:06;14.77;;;11.52;;
14876;SDS011;69691;48.172;17.070;2023-07-24T03:05:33;14.90;;;11.07;;
14876;SDS011;69691;48.172;17.070;2023-07-24T03:08:00;18.08;;;11.20;;
14876;SDS011;69691;48.172;17.070;2023-07-24T03:10:26;14.88;;;11.38;;
14876;SDS011;69691;48.172;17.070;2023-07-24T03:12:51;16.40;;;11.15;;
14876;SDS011;69691;48.172;17.070;2023-07-24T03:15:18;13.23;;;10.90;;
14876;SDS011;69691;48.172;17.070;2023-07-24T03:17:44;13.63;;;11.40;;
14876;SDS011;69691;48.172;17.070;2023-07-24T03:20:13;17.30;;;12.38;;
14876;SDS011;69691;48.172;17.070;2023-07-24T03:25:10;15.32;;;12.38;;
14876;SDS011;69691;48.172;17.070;2023-07-24T03:27:36;13.90;;;10.75;;
14876;SDS011;69691;48.172;17.070;2023-07-24T03:30:02;15.13;;;11.52;;
14876;SDS011;69691;48.172;17.070;2023-07-24T03:32:29;16.27;;;11.07;;
14876;SDS011;69691;48.172;17.070;2023-07-24T03:34:55;12.50;;;11.07;;
14876;SDS011;69691;48.172;17.070;2023-07-24T03:37:21;13.68;;;11.15;;
14876;SDS011;69691;48.172;17.070;2023-07-24T03:39:48;16.20;;;11.07;;
14876;SDS011;69691;48.172;17.070;2023-07-24T03:42:23;13.60;;;11.15;;
14876;SDS011;69691;48.172;17.070;2023-07-24T03:44:55;14.40;;;11.88;;
14876;SDS011;69691;48.172;17.070;2023-07-24T03:47:22;12.77;;;11.20;;
14876;SDS011;69691;48.172;17.070;2023-07-24T03:49:48;20.52;;;11.80;;
14876;SDS011;69691;48.172;17.070;2023-07-24T03:52:15;13.93;;;11.48;;
14876;SDS011;69691;48.172;17.070;2023-07-24T03:54:41;16.25;;;11.63;;
14876;SDS011;69691;48.172;17.070;2023-07-24T03:57:07;16.67;;;10.70;;
14876;SDS011;69691;48.172;17.070;2023-07-24T03:59:33;14.95;;;10.55;;
14876;SDS011;69691;48.172;17.070;2023-07-24T04:01:59;16.20;;;11.63;;
14876;SDS011;69691;48.172;17.070;2023-07-24T04:04:25;20.75;;;11.00;;
14876;SDS011;69691;48.172;17.070;2023-07-24T04:06:51;12.65;;;10.77;;
14876;SDS011;69691;48.172;17.070;2023-07-24T04:09:16;20.02;;;11.52;;
14876;SDS011;69691;48.172;17.070;2023-07-24T04:11:42;16.75;;;11.32;;
14876;SDS011;69691;48.172;17.070;2023-07-24T04:14:09;15.90;;;11.55;;
14876;SDS011;69691;48.172;17.070;2023-07-24T04:16:35;18.50;;;11.10;;
14876;SDS011;69691;48.172;17.070;2023-07-24T04:19:02;16.60;;;12.15;;
14876;SDS011;69691;48.172;17.070;2023-07-24T04:21:28;17.83;;;11.10;;
14876;SDS011;69691;48.172;17.070;2023-07-24T04:23:54;17.25;;;10.80;;
14876;SDS011;69691;48.172;17.070;2023-07-24T04:26:20;13.65;;;10.65;;
14876;SDS011;69691;48.172;17.070;2023-07-24T04:28:46;22.60;;;10.93;;
14876;SDS011;69691;48.172;17.070;2023-07-24T04:31:12;17.80;;;11.35;;
14876;SDS011;69691;48.172;17.070;2023-07-24T04:33:38;13.73;;;10.88;;
14876;SDS011;69691;48.172;17.070;2023-07-24T04:36:04;13.57;;;10.82;;
14876;SDS011;69691;48.172;17.070;2023-07-24T04:38:30;11.95;;;10.07;;
14876;SDS011;69691;48.172;17.070;2023-07-24T04:40:56;19.45;;;10.27;;
14876;SDS011;69691;48.172;17.070;2023-07-24T04:43:22;14.32;;;10.43;;
14876;SDS011;69691;48.172;17.070;2023-07-24T04:45:48;14.10;;;10.48;;
14876;SDS011;69691;48.172;17.070;2023-07-24T04:48:13;12.30;;;9.05;;
14876;SDS011;69691;48.172;17.070;2023-07-24T04:50:39;15.57;;;10.52;;
14876;SDS011;69691;48.172;17.070;2023-07-24T04:53:05;15.35;;;9.85;;
14876;SDS011;69691;48.172;17.070;2023-07-24T04:55:31;17.60;;;10.50;;
14876;SDS011;69691;48.172;17.070;2023-07-24T04:57:56;12.73;;;10.10;;
14876;SDS011;69691;48.172;17.070;2023-07-24T05:00:22;13.93;;;10.18;;
14876;SDS011;69691;48.172;17.070;2023-07-24T05:02:48;14.98;;;10.05;;
14876;SDS011;69691;48.172;17.070;2023-07-24T05:05:14;16.25;;;10.93;;
14876;SDS011;69691;48.172;17.070;2023-07-24T05:07:40;17.27;;;10.27;;
14876;SDS011;69691;48.172;17.070;2023-07-24T05:10:06;15.60;;;11.77;;
14876;SDS011;69691;48.172;17.070;2023-07-24T05:12:32;16.35;;;11.43;;
14876;SDS011;69691;48.172;17.070;2023-07-24T05:14:58;22.13;;;12.07;;
14876;SDS011;69691;48.172;17.070;2023-07-24T05:17:23;17.63;;;11.60;;
14876;SDS011;69691;48.172;17.070;2023-07-24T05:19:49;20.60;;;12.65;;
14876;SDS011;69691;48.172;17.070;2023-07-24T05:22:15;23.10;;;13.05;;
14876;SDS011;69691;48.172;17.070;2023-07-24T05:24:41;18.38;;;13.27;;
14876;SDS011;69691;48.172;17.070;2023-07-24T05:27:07;23.10;;;13.32;;
14876;SDS011;69691;48.172;17.070;2023-07-24T05:29:32;15.45;;;13.10;;
14876;SDS011;69691;48.172;17.070;2023-07-24T05:31:58;17.35;;;13.45;;
14876;SDS011;69691;48.172;17.070;2023-07-24T05:34:25;19.50;;;13.90;;
14876;SDS011;69691;48.172;17.070;2023-07-24T05:36:51;21.90;;;15.43;;
14876;SDS011;69691;48.172;17.070;2023-07-24T05:39:17;21.15;;;14.13;;
14876;SDS011;69691;48.172;17.070;2023-07-24T05:41:42;21.83;;;15.27;;
14876;SDS011;69691;48.172;17.070;2023-07-24T05:44:12;22.45;;;16.30;;
14876;SDS011;69691;48.172;17.070;2023-07-24T05:46:40;28.13;;;18.27;;
14876;SDS011;69691;48.172;17.070;2023-07-24T05:49:06;28.48;;;19.48;;
14876;SDS011;69691;48.172;17.070;2023-07-24T05:51:33;31.20;;;19.65;;
14876;SDS011;69691;48.172;17.070;2023-07-24T05:53:59;29.80;;;19.20;;
14876;SDS011;69691;48.172;17.070;2023-07-24T05:56:24;27.85;;;17.35;;
14876;SDS011;69691;48.172;17.070;2023-07-24T05:58:50;28.00;;;18.48;;
14876;SDS011;69691;48.172;17.070;2023-07-24T06:01:16;30.10;;;19.50;;
14876;SDS011;69691;48.172;17.070;2023-07-24T06:03:42;28.60;;;18.55;;
14876;SDS011;69691;48.172;17.070;2023-07-24T06:06:08;30.15;;;18.63;;
14876;SDS011;69691;48.172;17.070;2023-07-24T06:08:33;28.27;;;18.38;;
14876;SDS011;69691;48.172;17.070;2023-07-24T06:10:59;26.83;;;18.05;;
14876;SDS011;69691;48.172;17.070;2023-07-24T06:13:27;26.85;;;18.15;;
14876;SDS011;69691;48.172;17.070;2023-07-24T06:15:53;26.05;;;18.83;;
14876;SDS011;69691;48.172;17.070;2023-07-24T06:18:38;26.15;;;18.80;;
14876;SDS011;69691;48.172;17.070;2023-07-24T06:21:03;24.77;;;18.85;;
14876;SDS011;69691;48.172;17.070;2023-07-24T06:23:29;25.73;;;17.50;;
14876;SDS011;69691;48.172;17.070;2023-07-24T06:25:55;25.02;;;19.33;;
14876;SDS011;69691;48.172;17.070;2023-07-24T06:28:21;24.83;;;17.45;;
14876;SDS011;69691;48.172;17.070;2023-07-24T06:30:47;25.35;;;17.77;;
14876;SDS011;69691;48.172;17.070;2023-07-24T06:33:13;24.10;;;17.73;;
14876;SDS011;69691;48.172;17.070;2023-07-24T06:35:39;23.08;;;17.80;;
14876;SDS011;69691;48.172;17.070;2023-07-24T06:38:04;25.55;;;17.58;;
14876;SDS011;69691;48.172;17.070;2023-07-24T06:40:33;20.13;;;16.02;;
14876;SDS011;69691;48.172;17.070;2023-07-24T06:42:59;23.55;;;17.75;;
14876;SDS011;69691;48.172;17.070;2023-07-24T06:45:24;26.75;;;18.55;;
14876;SDS011;69691;48.172;17.070;2023-07-24T06:47:50;39.10;;;17.85;;
14876;SDS011;69691;48.172;17.070;2023-07-24T06:50:16;27.05;;;17.35;;
14876;SDS011;69691;48.172;17.070;2023-07-24T06:52:42;53.22;;;18.98;;
14876;SDS011;69691;48.172;17.070;2023-07-24T06:55:08;19.38;;;16.50;;
14876;SDS011;69691;48.172;17.070;2023-07-24T06:57:34;21.20;;;18.65;;
14876;SDS011;69691;48.172;17.070;2023-07-24T07:00:00;23.98;;;20.33;;
14876;SDS011;69691;48.172;17.070;2023-07-24T07:02:26;26.10;;;21.63;;
14876;SDS011;69691;48.172;17.070;2023-07-24T07:04:53;29.67;;;21.25;;
14876;SDS011;69691;48.172;17.070;2023-07-24T07:07:19;21.27;;;18.88;;
14876;SDS011;69691;48.172;17.070;2023-07-24T07:09:45;26.17;;;22.58;;
14876;SDS011;69691;48.172;17.070;2023-07-24T07:12:10;33.40;;;23.20;;
14876;SDS011;69691;48.172;17.070;2023-07-24T07:14:37;31.33;;;24.20;;
14876;SDS011;69691;48.172;17.070;2023-07-24T07:17:02;28.13;;;24.10;;
14876;SDS011;69691;48.172;17.070;2023-07-24T07:19:29;26.80;;;23.23;;
14876;SDS011;69691;48.172;17.070;2023-07-24T07:21:55;29.77;;;21.55;;
14876;SDS011;69691;48.172;17.070;2023-07-24T07:24:21;30.52;;;22.65;;
14876;SDS011;69691;48.172;17.070;2023-07-24T07:26:47;31.88;;;22.05;;
14876;SDS011;69691;48.172;17.070;2023-07-24T07:29:13;31.27;;;22.08;;
14876;SDS011;69691;48.172;17.070;2023-07-24T07:31:39;36.58;;;23.08;;
14876;SDS011;69691;48.172;17.070;2023-07-24T07:34:04;39.33;;;23.63;;
14876;SDS011;69691;48.172;17.070;2023-07-24T07:36:30;29.75;;;21.95;;
14876;SDS011;69691;48.172;17.070;2023-07-24T07:38:56;36.35;;;24.50;;
14876;SDS011;69691;48.172;17.070;2023-07-24T07:41:22;32.10;;;22.25;;
14876;SDS011;69691;48.172;17.070;2023-07-24T07:43:48;31.25;;;20.85;;
14876;SDS011;69691;48.172;17.070;2023-07-24T07:46:14;28.20;;;20.55;;
14876;SDS011;69691;48.172;17.070;2023-07-24T07:48:40;27.77;;;17.90;;
14876;SDS011;69691;48.172;17.070;2023-07-24T07:51:07;26.05;;;17.45;;
14876;SDS011;69691;48.172;17.070;2023-07-24T07:53:33;21.15;;;15.02;;
14876;SDS011;69691;48.172;17.070;2023-07-24T07:56:00;26.30;;;15.88;;
14876;SDS011;69691;48.172;17.070;2023-07-24T07:58:26;18.02;;;13.27;;
14876;SDS011;69691;48.172;17.070;2023-07-24T08:00:52;17.50;;;13.18;;
14876;SDS011;69691;48.172;17.070;2023-07-24T08:03:18;21.10;;;13.85;;
14876;SDS011;69691;48.172;17.070;2023-07-24T08:05:44;20.63;;;14.85;;
14876;SDS011;69691;48.172;17.070;2023-07-24T08:08:10;25.40;;;15.25;;
14876;SDS011;69691;48.172;17.070;2023-07-24T08:10:39;18.67;;;12.95;;
14876;SDS011;69691;48.172;17.070;2023-07-24T08:13:05;15.15;;;11.38;;
14876;SDS011;69691;48.172;17.070;2023-07-24T08:15:36;18.15;;;12.00;;
14876;SDS011;69691;48.172;17.070;2023-07-24T08:18:03;16.63;;;11.90;;
14876;SDS011;69691;48.172;17.070;2023-07-24T08:20:30;16.67;;;10.93;;
14876;SDS011;69691;48.172;17.070;2023-07-24T08:22:57;16.98;;;10.73;;
14876;SDS011;69691;48.172;17.070;2023-07-24T08:25:22;17.70;;;11.25;;
14876;SDS011;69691;48.172;17.070;2023-07-24T08:27:48;19.08;;;13.25;;
14876;SDS011;69691;48.172;17.070;2023-07-24T08:30:14;15.05;;;11.65;;
14876;SDS011;69691;48.172;17.070;2023-07-24T08:32:40;12.77;;;11.07;;
14876;SDS011;69691;48.172;17.070;2023-07-24T08:35:06;17.63;;;11.20;;
14876;SDS011;69691;48.172;17.070;2023-07-24T08:37:32;16.38;;;11.75;;
14876;SDS011;69691;48.172;17.070;2023-07-24T08:39:58;18.55;;;11.93;;
14876;SDS011;69691;48.172;17.070;2023-07-24T08:42:24;14.00;;;10.50;;
14876;SDS011;69691;48.172;17.070;2023-07-24T08:44:50;18.95;;;11.02;;
14876;SDS011;69691;48.172;17.070;2023-07-24T08:47:18;23.13;;;11.27;;
14876;SDS011;69691;48.172;17.070;2023-07-24T08:49:45;17.20;;;10.77;;
14876;SDS011;69691;48.172;17.070;2023-07-24T08:52:12;17.63;;;11.70;;
14876;SDS011;69691;48.172;17.070;2023-07-24T08:54:39;19.90;;;10.95;;
14876;SDS011;69691;48.172;17.070;2023-07-24T08:57:06;23.88;;;12.00;;
14876;SDS011;69691;48.172;17.070;2023-07-24T08:59:33;13.45;;;10.45;;
14876;SDS011;69691;48.172;17.070;2023-07-24T09:02:02;18.83;;;12.00;;
14876;SDS011;69691;48.172;17.070;2023-07-24T09:04:31;21.85;;;12.55;;
14876;SDS011;69691;48.172;17.070;2023-07-24T09:06:57;15.93;;;11.57;;
14876;SDS011;69691;48.172;17.070;2023-07-24T09:09:28;18.85;;;12.73;;
14876;SDS011;69691;48.172;17.070;2023-07-24T09:11:56;18.75;;;12.13;;
14876;SDS011;69691;48.172;17.070;2023-07-24T09:14:25;15.55;;;12.35;;
14876;SDS011;69691;48.172;17.070;2023-07-24T09:19:35;15.00;;;11.80;;
14876;SDS011;69691;48.172;17.070;2023-07-24T09:22:11;17.08;;;11.07;;
14876;SDS011;69691;48.172;17.070;2023-07-24T09:24:51;18.75;;;12.00;;
14876;SDS011;69691;48.172;17.070;2023-07-24T09:27:19;21.63;;;12.77;;
14876;SDS011;69691;48.172;17.070;2023-07-24T09:29:46;14.80;;;11.88;;
14876;SDS011;69691;48.172;17.070;2023-07-24T09:32:18;15.93;;;11.38;;
14876;SDS011;69691;48.172;17.070;2023-07-24T09:34:46;18.58;;;11.85;;
14876;SDS011;69691;48.172;17.070;2023-07-24T09:37:32;17.88;;;11.88;;
14876;SDS011;69691;48.172;17.070;2023-07-24T09:39:59;17.33;;;11.35;;
14876;SDS011;69691;48.172;17.070;2023-07-24T09:42:32;14.80;;;11.50;;
14876;SDS011;69691;48.172;17.070;2023-07-24T09:45:01;19.95;;;11.18;;
14876;SDS011;69691;48.172;17.070;2023-07-24T09:47:28;19.80;;;11.88;;
14876;SDS011;69691;48.172;17.070;2023-07-24T09:49:54;16.90;;;11.27;;
14876;SDS011;69691;48.172;17.070;2023-07-24T09:52:20;16.70;;;10.25;;
14876;SDS011;69691;48.172;17.070;2023-07-24T09:55:33;13.35;;;11.23;;
14876;SDS011;69691;48.172;17.070;2023-07-24T09:57:54;15.60;;;10.75;;
14876;SDS011;69691;48.172;17.070;2023-07-24T10:00:20;11.88;;;10.10;;
14876;SDS011;69691;48.172;17.070;2023-07-24T10:02:47;11.73;;;9.73;;
14876;SDS011;69691;48.172;17.070;2023-07-24T10:05:13;17.27;;;11.15;;
14876;SDS011;69691;48.172;17.070;2023-07-24T10:07:40;14.00;;;10.23;;
14876;SDS011;69691;48.172;17.070;2023-07-24T10:10:06;17.60;;;11.80;;
14876;SDS011;69691;48.172;17.070;2023-07-24T10:12:33;15.00;;;10.48;;
14876;SDS011;69691;48.172;17.070;2023-07-24T10:14:59;17.73;;;10.60;;
14876;SDS011;69691;48.172;17.070;2023-07-24T10:17:38;15.43;;;10.60;;
14876;SDS011;69691;48.172;17.070;2023-07-24T10:20:07;14.85;;;10.90;;
14876;SDS011;69691;48.172;17.070;2023-07-24T10:22:36;13.18;;;10.38;;
14876;SDS011;69691;48.172;17.070;2023-07-24T10:25:07;19.58;;;11.00;;
14876;SDS011;69691;48.172;17.070;2023-07-24T10:27:39;15.30;;;10.48;;
14876;SDS011;69691;48.172;17.070;2023-07-24T10:30:09;14.48;;;10.55;;
14876;SDS011;69691;48.172;17.070;2023-07-24T10:32:44;13.40;;;10.52;;
14876;SDS011;69691;48.172;17.070;2023-07-24T10:35:12;24.50;;;12.40;;
14876;SDS011;69691;48.172;17.070;2023-07-24T10:37:38;14.43;;;11.07;;
14876;SDS011;69691;48.172;17.070;2023-07-24T10:40:04;17.83;;;11.55;;
14876;SDS011;69691;48.172;17.070;2023-07-24T10:42:31;14.82;;;10.68;;
14876;SDS011;69691;48.172;17.070;2023-07-24T10:45:03;22.70;;;10.85;;
14876;SDS011;69691;48.172;17.070;2023-07-24T10:47:33;13.45;;;10.95;;
14876;SDS011;69691;48.172;17.070;2023-07-24T10:50:00;15.13;;;10.77;;
14876;SDS011;69691;48.172;17.070;2023-07-24T10:52:29;11.80;;;10.48;;
14876;SDS011;69691;48.172;17.070;2023-07-24T10:54:56;13.57;;;11.77;;
14876;SDS011;69691;48.172;17.070;2023-07-24T10:57:26;20.65;;;11.23;;
14876;SDS011;69691;48.172;17.070;2023-07-24T10:59:52;15.27;;;10.55;;
14876;SDS011;69691;48.172;17.070;2023-07-24T11:02:18;16.27;;;12.45;;
14876;SDS011;69691;48.172;17.070;2023-07-24T11:04:44;18.15;;;11.07;;
14876;SDS011;69691;48.172;17.070;2023-07-24T11:07:11;19.15;;;10.85;;
14876;SDS011;69691;48.172;17.070;2023-07-24T11:09:38;21.02;;;11.10;;
14876;SDS011;69691;48.172;17.070;2023-07-24T11:12:09;15.18;;;11.73;;
14876;SDS011;69691;48.172;17.070;2023-07-24T11:14:46;14.93;;;10.43;;
14876;SDS011;69691;48.172;17.070;2023-07-24T11:17:16;14.75;;;10.90;;
14876;SDS011;69691;48.172;17.070;2023-07-24T11:19:42;14.40;;;10.98;;
14876;SDS011;69691;48.172;17.070;2023-07-24T11:22:08;16.08;;;10.68;;
14876;SDS011;69691;48.172;17.070;2023-07-24T11:24:41;18.20;;;11.15;;
14876;SDS011;69691;48.172;17.070;2023-07-24T11:27:14;14.88;;;11.10;;
14876;SDS011;69691;48.172;17.070;2023-07-24T11:29:46;18.42;;;11.25;;
14876;SDS011;69691;48.172;17.070;2023-07-24T11:32:20;19.33;;;11.70;;
14876;SDS011;69691;48.172;17.070;2023-07-24T11:34:48;14.05;;;11.38;;
14876;SDS011;69691;48.172;17.070;2023-07-24T11:37:15;15.15;;;11.13;;
14876;SDS011;69691;48.172;17.070;2023-07-24T11:39:42;20.50;;;11.48;;
14876;SDS011;69691;48.172;17.070;2023-07-24T11:42:07;14.52;;;11.57;;
14876;SDS011;69691;48.172;17.070;2023-07-24T11:44:33;18.13;;;11.05;;
14876;SDS011;69691;48.172;17.070;2023-07-24T11:47:00;16.00;;;11.93;;
14876;SDS011;69691;48.172;17.070;2023-07-24T11:49:30;14.82;;;10.98;;
14876;SDS011;69691;48.172;17.070;2023-07-24T11:52:00;18.30;;;11.80;;
14876;SDS011;69691;48.172;17.070;2023-07-24T11:54:29;14.52;;;11.38;;
14876;SDS011;69691;48.172;17.070;2023-07-24T11:56:54;12.68;;;10.90;;
14876;SDS011;69691;48.172;17.070;2023-07-24T11:59:20;15.95;;;11.57;;
14876;SDS011;69691;48.172;17.070;2023-07-24T12:01:46;19.70;;;11.55;;
14876;SDS011;69691;48.172;17.070;2023-07-24T12:04:14;17.60;;;12.13;;
14876;SDS011;69691;48.172;17.070;2023-07-24T12:06:40;16.05;;;12.32;;
14876;SDS011;69691;48.172;17.070;2023-07-24T12:09:07;19.10;;;10.70;;
14876;SDS011;69691;48.172;17.070;2023-07-24T12:11:34;19.45;;;10.63;;
14876;SDS011;69691;48.172;17.070;2023-07-24T12:14:08;17.58;;;10.70;;
14876;SDS011;69691;48.172;17.070;2023-07-24T12:16:35;18.55;;;11.25;;
14876;SDS011;69691;48.172;17.070;2023-07-24T12:19:01;14.95;;;10.90;;
14876;SDS011;69691;48.172;17.070;2023-07-24T12:21:27;14.70;;;10.82;;
14876;SDS011;69691;48.172;17.070;2023-07-24T12:23:53;17.42;;;10.77;;
14876;SDS011;69691;48.172;17.070;2023-07-24T12:26:19;20.45;;;10.55;;
14876;SDS011;69691;48.172;17.070;2023-07-24T12:28:45;21.17;;;11.38;;
14876;SDS011;69691;48.172;17.070;2023-07-24T12:31:11;16.27;;;10.77;;
14876;SDS011;69691;48.172;17.070;2023-07-24T12:33:37;23.98;;;10.55;;
14876;SDS011;69691;48.172;17.070;2023-07-24T12:36:03;17.85;;;10.95;;
14876;SDS011;69691;48.172;17.070;2023-07-24T12:38:29;16.10;;;10.48;;
14876;SDS011;69691;48.172;17.070;2023-07-24T12:40:55;19.80;;;11.35;;
14876;SDS011;69691;48.172;17.070;2023-07-24T12:43:21;17.70;;;10.45;;
14876;SDS011;69691;48.172;17.070;2023-07-24T12:45:47;15.25;;;11.35;;
14876;SDS011;69691;48.172;17.070;2023-07-24T12:48:13;16.08;;;11.05;;
14876;SDS011;69691;48.172;17.070;2023-07-24T12:50:39;17.75;;;10.77;;
14876;SDS011;69691;48.172;17.070;2023-07-24T12:53:05;15.93;;;11.18;;
14876;SDS011;69691;48.172;17.070;2023-07-24T12:55:31;27.10;;;10.90;;
14876;SDS011;69691;48.172;17.070;2023-07-24T12:57:58;17.77;;;10.80;;
14876;SDS011;69691;48.172;17.070;2023-07-24T13:00:27;13.02;;;10.85;;
14876;SDS011;69691;48.172;17.070;2023-07-24T13:02:54;22.85;;;11.60;;
14876;SDS011;69691;48.172;17.070;2023-07-24T13:05:20;16.00;;;10.82;;
14876;SDS011;69691;48.172;17.070;2023-07-24T13:07:46;14.63;;;10.48;;
14876;SDS011;69691;48.172;17.070;2023-07-24T13:10:12;15.57;;;11.15;;
14876;SDS011;69691;48.172;17.070;2023-07-24T13:12:38;18.42;;;10.40;;
14876;SDS011;69691;48.172;17.070;2023-07-24T13:15:04;19.10;;;11.50;;
14876;SDS011;69691;48.172;17.070;2023-07-24T13:17:30;15.93;;;11.25;;
14876;SDS011;69691;48.172;17.070;2023-07-24T13:19:56;18.33;;;10.63;;
14876;SDS011;69691;48.172;17.070;2023-07-24T13:22:22;20.02;;;12.52;;
14876;SDS011;69691;48.172;17.070;2023-07-24T13:24:48;14.18;;;10.65;;
14876;SDS011;69691;48.172;17.070;2023-07-24T13:27:14;19.15;;;12.40;;
14876;SDS011;69691;48.172;17.070;2023-07-24T13:29:39;16.08;;;11.80;;
14876;SDS011;69691;48.172;17.070;2023-07-24T13:32:05;18.67;;;11.90;;
14876;SDS011;69691;48.172;17.070;2023-07-24T13:34:32;17.90;;;12.88;;
14876;SDS011;69691;48.172;17.070;2023-07-24T13:36:57;18.67;;;12.55;;
14876;SDS011;69691;48.172;17.070;2023-07-24T13:39:23;14.40;;;12.77;;
14876;SDS011;69691;48.172;17.070;2023-07-24T13:41:49;15.63;;;12.18;;
14876;SDS011;69691;48.172;17.070;2023-07-24T13:44:15;20.23;;;12.85;;
14876;SDS011;69691;48.172;17.070;2023-07-24T13:46:41;17.42;;;12.80;;
14876;SDS011;69691;48.172;17.070;2023-07-24T13:49:07;17.10;;;12.85;;
14876;SDS011;69691;48.172;17.070;2023-07-24T13:51:32;25.38;;;12.18;;
14876;SDS011;69691;48.172;17.070;2023-07-24T13:53:58;19.60;;;12.07;;
14876;SDS011;69691;48.172;17.070;2023-07-24T13:56:25;19.38;;;12.45;;
14876;SDS011;69691;48.172;17.070;2023-07-24T13:58:52;18.13;;;12.80;;
14876;SDS011;69691;48.172;17.070;2023-07-24T14:01:18;18.40;;;12.77;;
14876;SDS011;69691;48.172;17.070;2023-07-24T14:03:44;18.63;;;12.63;;
14876;SDS011;69691;48.172;17.070;2023-07-24T14:06:10;22.08;;;14.00;;
14876;SDS011;69691;48.172;17.070;2023-07-24T14:08:36;16.73;;;13.63;;
14876;SDS011;69691;48.172;17.070;2023-07-24T14:11:02;22.02;;;12.55;;
14876;SDS011;69691;48.172;17.070;2023-07-24T14:13:28;18.17;;;13.90;;
14876;SDS011;69691;48.172;17.070;2023-07-24T14:15:54;16.60;;;14.50;;